Time;durP1;ratioP1;P1;durP2;ratioP2;P2;SDS_P1;SDS_P2;PMS_P1;PMS_P2;Temp;Humidity;BMP_temperature;BMP_pressure;BME280_temperature;BME280_humidity;BME280_pressure;Samples;Min_cycle;Max_cycle;Signal;HPM_P1;HPM_P2
2022/08/24 00:00:19;;;;;;;4.47;3.80;;;19.50;99.90;;;;;;5116287;28;20452;-58
2022/08/24 00:02:46;;;;;;;4.43;4.03;;;19.50;99.90;;;;;;5116494;28;20452;-58
2022/08/24 00:05:13;;;;;;;5.33;4.60;;;19.60;99.90;;;;;;5116148;28;20445;-58
2022/08/24 00:07:39;;;;;;;7.20;5.30;;;19.60;99.90;;;;;;5116311;28;20455;-57
2022/08/24 00:10:09;;;;;;;6.60;4.40;;;19.60;99.90;;;;;;5116252;28;20442;-58
2022/08/24 00:12:35;;;;;;;4.33;3.93;;;19.50;99.90;;;;;;5116056;28;20932;-55
2022/08/24 00:15:06;;;;;;;4.60;4.07;;;19.60;99.90;;;;;;5116250;28;20500;-56
2022/08/24 00:17:33;;;;;;;4.40;4.10;;;19.70;99.90;;;;;;5116256;28;20449;-58
2022/08/24 00:20:01;;;;;;;4.40;3.80;;;19.70;99.90;;;;;;5116139;28;20449;-58
2022/08/24 00:22:27;;;;;;;5.87;4.87;;;19.70;99.90;;;;;;5115932;28;20481;-58
2022/08/24 00:24:55;;;;;;;6.67;4.00;;;19.70;99.90;;;;;;5115966;28;20537;-58
2022/08/24 00:27:22;;;;;;;4.67;4.17;;;19.60;99.90;;;;;;5115768;28;20452;-58
2022/08/24 00:29:48;;;;;;;17.37;15.77;;;19.50;99.90;;;;;;5115993;28;20813;-57
2022/08/24 00:32:16;;;;;;;36.57;30.90;;;19.20;99.90;;;;;;5115843;28;20451;-57
2022/08/24 00:34:43;;;;;;;11.23;8.83;;;18.70;99.90;;;;;;5115736;28;20475;-56
2022/08/24 00:37:10;;;;;;;11.47;10.37;;;18.40;99.90;;;;;;5115738;28;20492;-57
2022/08/24 00:39:36;;;;;;;6.23;5.07;;;18.50;99.90;;;;;;5115634;28;20450;-58
2022/08/24 00:42:03;;;;;;;7.10;6.50;;;18.50;99.90;;;;;;5115402;28;20452;-57
2022/08/24 00:44:29;;;;;;;5.50;5.03;;;18.40;99.90;;;;;;5115724;28;20456;-58
2022/08/24 00:46:59;;;;;;;6.00;5.50;;;18.40;99.90;;;;;;5115596;28;20782;-58
2022/08/24 00:49:33;;;;;;;14.40;9.53;;;18.50;99.90;;;;;;5115533;28;20441;-57
2022/08/24 00:52:05;;;;;;;8.13;6.73;;;18.20;99.90;;;;;;5115433;28;20452;-57
2022/08/24 00:54:38;;;;;;;6.67;6.07;;;18.10;99.90;;;;;;5115372;28;20480;-57
2022/08/24 00:57:09;;;;;;;5.83;5.30;;;18.30;99.90;;;;;;5115463;28;20855;-57
2022/08/24 00:59:39;;;;;;;5.40;5.00;;;18.50;99.90;;;;;;5115345;28;20456;-58
2022/08/24 01:02:10;;;;;;;12.00;9.13;;;18.60;99.90;;;;;;5115219;28;20456;-57
2022/08/24 01:04:43;;;;;;;7.57;6.97;;;18.10;99.90;;;;;;5115176;28;20824;-56
2022/08/24 01:07:09;;;;;;;12.00;8.80;;;17.80;99.90;;;;;;5115069;28;21058;-58
2022/08/24 01:09:36;;;;;;;13.60;9.50;;;17.90;99.90;;;;;;5115208;28;20869;-58
2022/08/24 01:12:03;;;;;;;6.70;5.07;;;18.00;99.90;;;;;;5115058;28;20452;-58
2022/08/24 01:14:30;;;;;;;11.50;8.17;;;18.10;99.90;;;;;;5114915;28;20479;-57
2022/08/24 01:19:45;;;;;;;15.30;11.17;;;17.50;99.90;;;;;;5114911;28;20578;-58
2022/08/24 01:22:25;;;;;;;16.33;10.97;;;17.50;99.90;;;;;;5114955;28;20871;-58
2022/08/24 01:24:54;;;;;;;6.60;6.00;;;17.70;99.90;;;;;;5114862;28;20528;-57
2022/08/24 01:27:21;;;;;;;6.40;5.80;;;17.90;99.90;;;;;;5114765;28;20452;-57
2022/08/24 01:29:49;;;;;;;12.60;9.50;;;18.00;99.90;;;;;;5114574;28;20851;-58
2022/08/24 01:32:16;;;;;;;12.97;8.13;;;18.00;99.90;;;;;;5114759;28;20745;-58
2022/08/24 01:34:43;;;;;;;12.30;7.30;;;17.70;99.90;;;;;;5114604;28;20476;-58
2022/08/24 01:37:10;;;;;;;9.83;7.50;;;17.60;99.90;;;;;;5114453;28;20446;-58
2022/08/24 01:39:40;;;;;;;7.17;6.67;;;17.70;99.90;;;;;;5114546;28;20456;-56
2022/08/24 01:42:08;;;;;;;6.60;6.00;;;17.70;99.90;;;;;;5114735;28;20771;-57
2022/08/24 01:44:37;;;;;;;7.57;5.47;;;17.80;99.90;;;;;;5114263;28;20518;-57
2022/08/24 01:47:05;;;;;;;6.80;4.30;;;17.90;99.90;;;;;;5114289;28;20446;-58
2022/08/24 01:49:34;;;;;;;6.93;5.47;;;17.80;99.90;;;;;;5114363;28;20441;-57
2022/08/24 01:52:00;;;;;;;5.17;4.60;;;17.80;99.90;;;;;;5114585;28;20455;-57
2022/08/24 01:54:27;;;;;;;5.33;4.90;;;17.90;99.90;;;;;;5114134;28;20787;-58
2022/08/24 01:56:54;;;;;;;8.13;4.37;;;18.00;99.90;;;;;;5113994;28;20958;-58
2022/08/24 01:59:22;;;;;;;5.60;5.10;;;18.10;99.90;;;;;;5114308;28;20452;-58
2022/08/24 02:01:54;;;;;;;6.77;6.10;;;18.20;99.90;;;;;;5114121;28;20450;-58
2022/08/24 02:04:21;;;;;;;7.97;6.40;;;18.20;99.90;;;;;;5114113;28;20446;-58
2022/08/24 02:06:47;;;;;;;11.23;7.30;;;18.20;99.90;;;;;;5113368;28;20801;-58
2022/08/24 02:09:14;;;;;;;13.90;9.50;;;18.20;99.90;;;;;;5113896;28;20452;-57
2022/08/24 02:11:41;;;;;;;17.27;10.13;;;18.00;99.90;;;;;;5113741;28;20949;-57
2022/08/24 02:14:08;;;;;;;17.57;9.30;;;17.90;99.90;;;;;;5113937;28;20449;-56
2022/08/24 02:16:37;;;;;;;16.90;9.70;;;17.90;99.90;;;;;;5113778;28;20487;-57
2022/08/24 02:19:03;;;;;;;16.47;10.60;;;17.90;99.90;;;;;;5113825;28;20446;-58
2022/08/24 02:21:30;;;;;;;15.10;10.63;;;18.00;99.90;;;;;;5113613;28;20508;-57
2022/08/24 02:23:56;;;;;;;20.70;11.63;;;18.10;99.90;;;;;;5113599;28;20449;-57
2022/08/24 02:26:23;;;;;;;23.60;12.10;;;18.10;99.90;;;;;;5113815;28;20445;-59
2022/08/24 02:28:49;;;;;;;23.43;12.10;;;18.20;99.90;;;;;;5113505;28;20955;-57
2022/08/24 02:31:16;;;;;;;21.57;13.20;;;18.30;99.90;;;;;;5113699;28;20812;-58
2022/08/24 02:33:44;;;;;;;19.43;12.27;;;18.30;99.90;;;;;;5113542;28;20446;-57
2022/08/24 02:36:11;;;;;;;27.57;12.83;;;18.20;99.90;;;;;;5113393;28;20477;-57
2022/08/24 02:38:38;;;;;;;19.27;13.33;;;18.30;99.90;;;;;;5113399;28;20453;-58
2022/08/24 02:41:05;;;;;;;27.63;14.53;;;18.30;99.90;;;;;;5113623;28;20536;-55
2022/08/24 02:43:32;;;;;;;26.07;14.20;;;18.40;99.90;;;;;;5113411;28;20530;-58
2022/08/24 02:45:59;;;;;;;24.27;14.57;;;18.50;99.90;;;;;;5113427;28;20445;-57
2022/08/24 02:48:25;;;;;;;25.70;15.33;;;18.50;99.90;;;;;;5113141;28;20514;-57
2022/08/24 02:50:53;;;;;;;22.33;16.13;;;18.50;99.90;;;;;;5113295;28;20451;-57
2022/08/24 02:53:21;;;;;;;29.70;17.40;;;18.40;99.90;;;;;;5113630;28;20446;-58
2022/08/24 02:55:48;;;;;;;30.20;16.40;;;18.40;99.90;;;;;;5113366;28;20481;-58
2022/08/24 02:58:16;;;;;;;29.53;17.83;;;18.40;99.90;;;;;;5113317;28;20446;-57
2022/08/24 03:00:47;;;;;;;32.23;19.33;;;18.50;99.90;;;;;;5113274;28;20785;-57
2022/08/24 03:03:14;;;;;;;26.13;17.17;;;18.60;99.90;;;;;;5113115;28;20446;-58
2022/08/24 03:05:40;;;;;;;30.50;18.27;;;18.60;99.90;;;;;;5113093;28;20453;-58
2022/08/24 03:08:08;;;;;;;30.00;17.70;;;18.70;99.90;;;;;;5113317;28;20448;-56
2022/08/24 03:10:35;;;;;;;31.13;17.80;;;18.80;99.90;;;;;;5113249;28;20784;-58
2022/08/24 03:13:02;;;;;;;27.07;18.40;;;18.90;99.90;;;;;;5113119;28;20455;-58
2022/08/24 03:15:29;;;;;;;35.20;19.63;;;18.80;99.90;;;;;;5113040;28;20552;-57
2022/08/24 03:17:56;;;;;;;27.83;17.57;;;18.90;99.90;;;;;;5114165;28;20454;-58
2022/08/24 03:20:23;;;;;;;28.27;16.70;;;19.00;99.90;;;;;;5117143;28;20836;-58
2022/08/24 03:22:50;;;;;;;29.33;17.67;;;19.10;99.90;;;;;;5117207;28;20448;-58
2022/08/24 03:25:20;;;;;;;28.53;18.10;;;19.10;99.90;;;;;;5117453;28;20540;-57
2022/08/24 03:27:46;;;;;;;28.13;17.00;;;19.20;99.90;;;;;;5117290;28;20630;-58
2022/08/24 03:30:15;;;;;;;33.70;19.80;;;19.10;99.90;;;;;;5116994;28;20445;-56
2022/08/24 03:32:42;;;;;;;26.23;17.57;;;19.10;99.90;;;;;;5116593;28;20457;-57
2022/08/24 03:35:10;;;;;;;24.80;17.00;;;19.20;99.90;;;;;;5116999;28;20469;-57
2022/08/24 03:37:36;;;;;;;22.60;16.40;;;19.20;99.90;;;;;;5116998;28;20449;-57
2022/08/24 03:40:03;;;;;;;28.30;18.07;;;19.30;99.90;;;;;;5116935;28;20455;-57
2022/08/24 03:42:31;;;;;;;22.17;15.90;;;19.20;99.90;;;;;;5116552;28;20481;-58
2022/08/24 03:44:58;;;;;;;29.07;17.13;;;19.20;99.90;;;;;;5116719;28;20778;-58
2022/08/24 03:47:24;;;;;;;17.13;13.10;;;19.30;99.90;;;;;;5116342;28;20484;-57
2022/08/24 03:49:51;;;;;;;24.23;17.07;;;19.30;99.90;;;;;;5116822;28;20876;-57
2022/08/24 03:52:18;;;;;;;27.27;17.27;;;19.40;99.90;;;;;;5116738;28;20496;-57
2022/08/24 03:54:44;;;;;;;25.63;16.00;;;19.40;99.90;;;;;;5116661;28;20821;-57
2022/08/24 03:57:11;;;;;;;21.07;15.10;;;19.40;99.90;;;;;;5116491;28;20473;-57
2022/08/24 03:59:38;;;;;;;23.07;16.30;;;19.40;99.90;;;;;;5116488;28;20843;-58
2022/08/24 04:02:08;;;;;;;18.10;13.20;;;19.50;99.90;;;;;;5116288;28;20437;-57
2022/08/24 04:04:34;;;;;;;25.33;15.80;;;19.50;99.90;;;;;;5116572;27;20446;-57
2022/08/24 04:07:01;;;;;;;22.03;15.97;;;19.50;99.90;;;;;;5116229;28;20983;-57
2022/08/24 04:09:27;;;;;;;26.70;17.30;;;19.50;99.90;;;;;;5116310;28;20456;-57
2022/08/24 04:11:54;;;;;;;27.87;17.60;;;19.50;99.90;;;;;;5116253;28;20445;-57
2022/08/24 04:14:20;;;;;;;26.03;16.97;;;19.50;99.90;;;;;;5116051;28;20948;-58
2022/08/24 04:16:48;;;;;;;18.70;14.30;;;19.40;99.90;;;;;;5116216;28;20836;-57
2022/08/24 04:19:14;;;;;;;25.50;16.37;;;19.40;99.90;;;;;;5116388;28;20473;-58
2022/08/24 04:21:43;;;;;;;20.70;15.90;;;19.40;99.90;;;;;;5116130;28;20446;-56
2022/08/24 04:24:10;;;;;;;18.47;14.70;;;19.40;99.90;;;;;;5116002;28;20801;-57
2022/08/24 04:26:39;;;;;;;22.17;15.50;;;19.40;99.90;;;;;;5115798;28;20456;-57
2022/08/24 04:29:08;;;;;;;21.67;15.80;;;19.40;99.90;;;;;;5115352;28;20450;-57
2022/08/24 04:31:35;;;;;;;23.50;15.87;;;19.40;99.90;;;;;;5115793;28;20487;-57
2022/08/24 04:34:03;;;;;;;26.50;17.03;;;19.40;99.90;;;;;;5115737;28;20959;-58
2022/08/24 04:36:31;;;;;;;20.57;14.40;;;19.50;99.90;;;;;;5115682;28;20580;-57
2022/08/24 04:38:58;;;;;;;19.60;14.07;;;19.50;99.90;;;;;;5115647;28;20445;-57
2022/08/24 04:41:25;;;;;;;19.90;15.13;;;19.50;99.90;;;;;;5115375;28;20802;-58
2022/08/24 04:43:51;;;;;;;20.17;14.70;;;19.50;99.90;;;;;;5115294;27;20499;-57
2022/08/24 04:46:19;;;;;;;18.60;14.73;;;19.50;99.90;;;;;;5115555;28;20446;-58
2022/08/24 04:48:47;;;;;;;24.13;15.00;;;19.60;99.90;;;;;;5115336;28;20485;-57
2022/08/24 04:51:17;;;;;;;19.90;13.83;;;19.60;99.90;;;;;;5115534;28;20449;-57
2022/08/24 04:53:45;;;;;;;18.20;15.00;;;19.60;99.90;;;;;;5115802;28;20449;-57
2022/08/24 04:56:13;;;;;;;20.17;14.50;;;19.70;99.90;;;;;;5115196;28;20577;-57
2022/08/24 04:58:40;;;;;;;20.67;15.43;;;19.70;99.90;;;;;;5115453;28;20450;-57
2022/08/24 05:01:12;;;;;;;17.10;14.27;;;19.70;99.90;;;;;;5115287;28;20446;-57
2022/08/24 05:03:39;;;;;;;20.33;15.03;;;19.80;99.90;;;;;;5115163;28;20453;-57
2022/08/24 05:06:06;;;;;;;18.80;14.80;;;19.90;99.90;;;;;;5115117;28;20506;-57
2022/08/24 05:08:34;;;;;;;17.93;14.23;;;19.90;99.90;;;;;;5114988;28;20448;-56
2022/08/24 05:11:05;;;;;;;23.57;16.10;;;20.00;99.90;;;;;;5115131;28;20531;-57
2022/08/24 05:13:32;;;;;;;23.13;16.27;;;20.00;99.90;;;;;;5115046;28;20510;-57
2022/08/24 05:15:58;;;;;;;20.80;16.60;;;20.00;99.90;;;;;;5114873;28;20832;-57
2022/08/24 05:18:28;;;;;;;22.53;16.30;;;20.10;99.90;;;;;;5114811;28;20446;-58
2022/08/24 05:20:55;;;;;;;21.27;16.50;;;20.20;99.90;;;;;;5114809;28;20532;-58
2022/08/24 05:23:22;;;;;;;22.63;17.20;;;20.30;99.90;;;;;;5114551;28;20452;-57
2022/08/24 05:25:50;;;;;;;20.63;15.00;;;20.40;99.90;;;;;;5114942;28;20450;-56
2022/08/24 05:28:17;;;;;;;25.60;16.87;;;20.50;99.90;;;;;;5114772;28;20452;-57
2022/08/24 05:30:43;;;;;;;19.00;15.10;;;20.50;99.90;;;;;;5114550;28;20509;-57
2022/08/24 05:33:10;;;;;;;23.30;17.27;;;20.60;99.90;;;;;;5114484;28;20500;-59
2022/08/24 05:35:38;;;;;;;22.70;15.97;;;20.60;99.90;;;;;;5114267;28;20456;-57
2022/08/24 05:38:05;;;;;;;22.00;15.93;;;20.60;99.90;;;;;;5114761;28;20446;-59
2022/08/24 05:40:31;;;;;;;23.07;16.10;;;20.70;99.90;;;;;;5114515;28;20851;-58
2022/08/24 05:42:59;;;;;;;20.23;16.13;;;20.70;99.90;;;;;;5113605;28;20472;-57
2022/08/24 05:45:26;;;;;;;21.90;17.60;;;20.80;99.90;;;;;;5114383;28;20813;-57
2022/08/24 05:47:52;;;;;;;21.20;17.37;;;20.80;99.90;;;;;;5114059;28;20469;-57
2022/08/24 05:50:19;;;;;;;21.00;16.07;;;20.80;99.90;;;;;;5114120;28;20489;-58
2022/08/24 05:52:45;;;;;;;22.70;17.57;;;20.90;99.90;;;;;;5114220;28;21021;-56
2022/08/24 05:55:12;;;;;;;16.80;14.33;;;21.00;99.90;;;;;;5114141;28;20449;-57
2022/08/24 05:57:39;;;;;;;23.10;18.30;;;21.10;99.90;;;;;;5114005;28;20841;-58
2022/08/24 06:00:09;;;;;;;18.53;15.63;;;21.10;99.90;;;;;;5113850;28;20472;-56
2022/08/24 06:02:36;;;;;;;21.23;16.47;;;21.20;99.90;;;;;;5113813;28;20537;-58
2022/08/24 06:05:02;;;;;;;22.60;16.03;;;21.20;99.90;;;;;;5113545;28;20450;-58
2022/08/24 06:07:29;;;;;;;15.57;13.80;;;21.30;99.90;;;;;;5114019;28;20794;-56
2022/08/24 06:09:56;;;;;;;24.53;16.50;;;21.40;99.90;;;;;;5113909;28;20540;-57
2022/08/24 06:12:23;;;;;;;17.80;14.93;;;21.50;99.90;;;;;;5113681;28;20448;-57
2022/08/24 06:14:49;;;;;;;19.67;15.73;;;21.60;99.90;;;;;;5113644;28;20461;-57
2022/08/24 06:17:17;;;;;;;16.30;13.93;;;21.70;99.90;;;;;;5113474;28;20875;-57
2022/08/24 06:19:44;;;;;;;17.50;14.27;;;21.70;99.90;;;;;;5113747;28;20535;-58
2022/08/24 06:22:10;;;;;;;22.20;14.87;;;21.80;99.90;;;;;;5113432;28;20513;-57
2022/08/24 06:27:22;;;;;;;18.00;14.20;;;21.70;99.90;;;;;;5113458;28;20436;-57
2022/08/24 06:29:50;;;;;;;20.37;15.47;;;21.50;99.90;;;;;;5113271;28;20855;-57
2022/08/24 06:32:18;;;;;;;21.47;15.83;;;21.40;99.90;;;;;;5111171;28;20564;-58
2022/08/24 06:34:45;;;;;;;16.50;14.17;;;21.50;99.90;;;;;;5103217;28;20456;-58
2022/08/24 06:37:12;;;;;;;16.10;14.00;;;21.50;99.90;;;;;;5102552;28;20473;-57
2022/08/24 06:39:38;;;;;;;13.13;11.17;;;21.40;99.90;;;;;;5113275;28;20445;-57
2022/08/24 06:42:05;;;;;;;17.70;15.20;;;21.50;99.90;;;;;;5108898;27;20446;-58
2022/08/24 06:44:32;;;;;;;16.20;14.57;;;21.60;99.90;;;;;;5096749;28;20462;-57
2022/08/24 06:46:59;;;;;;;17.70;12.97;;;21.70;99.90;;;;;;5098934;28;20539;-62
2022/08/24 06:49:27;;;;;;;17.93;13.53;;;21.90;99.90;;;;;;5113031;28;20805;-59
2022/08/24 06:51:55;;;;;;;13.90;12.50;;;22.00;99.90;;;;;;5103690;28;20909;-60
2022/08/24 06:54:21;;;;;;;14.60;13.00;;;22.10;99.90;;;;;;5091463;28;20545;-60
2022/08/24 06:56:48;;;;;;;13.83;12.40;;;22.00;99.90;;;;;;5096152;28;20493;-61
2022/08/24 06:59:14;;;;;;;16.77;10.40;;;22.00;99.90;;;;;;5097994;28;20809;-60
2022/08/24 07:01:41;;;;;;;13.20;11.00;;;22.10;99.90;;;;;;5094279;28;20940;-61
2022/08/24 07:04:08;;;;;;;14.50;12.53;;;22.20;99.90;;;;;;5113105;28;20445;-61
2022/08/24 07:06:36;;;;;;;13.60;11.23;;;22.30;99.90;;;;;;5113176;28;20503;-60
2022/08/24 07:09:04;;;;;;;14.47;11.37;;;22.40;99.90;;;;;;5112916;28;20457;-60
2022/08/24 07:11:31;;;;;;;11.60;10.60;;;22.60;99.90;;;;;;5112893;28;20446;-62
2022/08/24 07:13:58;;;;;;;11.97;10.60;;;22.70;99.90;;;;;;5111980;28;20461;-59
2022/08/24 07:16:24;;;;;;;12.90;10.47;;;22.90;99.90;;;;;;5112496;28;20470;-59
2022/08/24 07:18:51;;;;;;;10.53;9.63;;;22.90;99.90;;;;;;5112893;28;20851;-58
2022/08/24 07:21:18;;;;;;;15.70;11.60;;;22.80;99.90;;;;;;5112906;28;20445;-59
2022/08/24 07:23:46;;;;;;;13.40;11.10;;;22.90;99.90;;;;;;5112713;28;20450;-60
2022/08/24 07:26:17;;;;;;;17.97;11.50;;;23.00;99.90;;;;;;5112686;28;20959;-59
2022/08/24 07:28:44;;;;;;;13.10;11.10;;;23.00;99.90;;;;;;5108837;28;20567;-59
2022/08/24 07:31:12;;;;;;;11.30;10.23;;;22.30;99.90;;;;;;5109746;28;20591;-59
2022/08/24 07:33:38;;;;;;;16.63;13.13;;;22.30;99.90;;;;;;5097416;28;20543;-60
2022/08/24 07:36:05;;;;;;;14.90;11.37;;;22.50;99.90;;;;;;5098452;28;20472;-60
2022/08/24 07:38:32;;;;;;;12.20;10.60;;;22.70;99.90;;;;;;5109217;28;20898;-62
2022/08/24 07:41:01;;;;;;;11.03;9.87;;;22.70;99.90;;;;;;5100505;28;20951;-62
2022/08/24 07:43:28;;;;;;;11.90;10.63;;;22.90;99.90;;;;;;5104476;28;20461;-63
2022/08/24 07:45:54;;;;;;;11.83;9.47;;;23.00;99.90;;;;;;5112670;28;20468;-60
2022/08/24 07:48:21;;;;;;;10.47;9.37;;;23.00;99.90;;;;;;5108879;28;20484;-60
2022/08/24 07:50:47;;;;;;;10.80;9.70;;;22.80;99.90;;;;;;5095408;28;20533;-60
2022/08/24 07:53:14;;;;;;;9.37;8.30;;;23.00;99.90;;;;;;5099049;28;20878;-60
2022/08/24 07:55:40;;;;;;;17.90;10.97;;;23.10;99.90;;;;;;5091599;28;20873;-60
2022/08/24 07:58:08;;;;;;;12.83;10.10;;;22.70;99.90;;;;;;5092207;28;20576;-60
2022/08/24 08:00:35;;;;;;;9.93;9.10;;;22.60;99.90;;;;;;5092312;28;20821;-60
2022/08/24 08:03:03;;;;;;;12.17;10.33;;;22.70;99.90;;;;;;5092141;28;20451;-60
2022/08/24 08:05:29;;;;;;;13.03;10.63;;;22.80;99.90;;;;;;5093860;28;20537;-60
2022/08/24 08:07:56;;;;;;;11.90;9.40;;;23.00;99.90;;;;;;5103247;27;20874;-60
2022/08/24 08:10:23;;;;;;;11.80;10.77;;;23.10;99.90;;;;;;5136935;27;20449;-60
2022/08/24 08:12:49;;;;;;;12.60;10.33;;;23.20;99.90;;;;;;5135394;27;20880;-60
2022/08/24 08:15:17;;;;;;;12.47;11.10;;;23.00;99.90;;;;;;5118445;27;20552;-60
2022/08/24 08:17:45;;;;;;;13.53;12.07;;;22.60;99.90;;;;;;5115687;28;20473;-60
2022/08/24 08:20:12;;;;;;;13.50;12.20;;;22.60;99.90;;;;;;5115649;27;20573;-60
2022/08/24 08:25:23;;;;;;;11.77;10.67;;;22.90;99.90;;;;;;5136139;27;20497;-60
2022/08/24 08:27:50;;;;;;;12.50;10.73;;;22.60;99.90;;;;;;5099513;27;20813;-60
2022/08/24 08:30:19;;;;;;;13.47;11.93;;;22.30;99.90;;;;;;5095083;28;20459;-60
2022/08/24 08:32:45;;;;;;;11.57;10.47;;;22.10;99.90;;;;;;5097752;28;20460;-61
2022/08/24 08:35:12;;;;;;;11.77;10.70;;;22.20;99.90;;;;;;5098010;28;20962;-59
2022/08/24 08:37:38;;;;;;;18.73;12.60;;;22.10;99.90;;;;;;5104623;28;20538;-60
2022/08/24 08:40:11;;;;;;;11.37;10.47;;;22.10;99.90;;;;;;5114240;28;20533;-60
2022/08/24 08:42:50;;;;;;;15.70;12.60;;;22.00;99.90;;;;;;5118263;27;20453;-61
2022/08/24 08:45:32;;;;;;;13.50;12.33;;;21.70;99.90;;;;;;5105921;28;20449;-63
2022/08/24 08:48:42;;;;;;;15.33;13.90;;;21.70;99.90;;;;;;5115889;27;20485;-61
2022/08/24 08:51:51;;;;;;;14.33;12.83;;;21.80;99.90;;;;;;5104704;27;20435;-60
2022/08/24 08:54:36;;;;;;;14.93;13.53;;;21.80;99.90;;;;;;5116591;27;20847;-59
2022/08/24 08:57:17;;;;;;;14.73;13.27;;;21.90;99.90;;;;;;5111849;28;20545;-60
2022/08/24 09:00:07;;;;;;;13.63;12.30;;;21.90;99.90;;;;;;5094906;28;20975;-66
2022/08/24 09:03:21;;;;;;;15.20;13.80;;;22.00;99.90;;;;;;5094287;28;20477;-64
2022/08/24 09:06:30;;;;;;;13.43;12.03;;;22.30;99.90;;;;;;5047498;28;20446;-66
2022/08/24 09:09:15;;;;;;;14.60;13.13;;;22.10;99.90;;;;;;5094017;28;20587;-59
2022/08/24 09:11:53;;;;;;;14.03;12.73;;;21.80;99.90;;;;;;5094173;28;20453;-58
2022/08/24 09:14:47;;;;;;;14.33;12.83;;;22.00;99.90;;;;;;5094395;28;20537;-60
2022/08/24 09:17:31;;;;;;;14.53;13.03;;;22.10;99.90;;;;;;5095469;28;20469;-63
2022/08/24 09:20:19;;;;;;;12.73;11.53;;;22.40;99.90;;;;;;5094408;28;20541;-62
2022/08/24 09:22:48;;;;;;;14.70;13.30;;;22.70;99.90;;;;;;5103471;27;20459;-59
2022/08/24 09:25:23;;;;;;;13.70;12.23;;;22.70;99.90;;;;;;5120928;27;20478;-59
2022/08/24 09:28:06;;;;;;;14.33;13.10;;;22.60;99.90;;;;;;5121376;27;20451;-59
2022/08/24 09:30:46;;;;;;;16.53;13.93;;;22.40;99.90;;;;;;5119075;27;20464;-59
2022/08/24 09:33:20;;;;;;;15.10;13.80;;;22.70;99.90;;;;;;5121134;27;20457;-58
2022/08/24 09:36:07;;;;;;;16.80;14.90;;;22.60;99.90;;;;;;5135060;27;20540;-58
2022/08/24 09:38:57;;;;;;;15.93;14.50;;;22.40;99.90;;;;;;5134781;27;20560;-59
2022/08/24 09:41:55;;;;;;;16.80;15.30;;;22.40;99.90;;;;;;5110036;27;20450;-59
2022/08/24 09:45:10;;;;;;;15.17;13.70;;;22.60;99.90;;;;;;5113218;28;20445;-60
2022/08/24 09:47:55;;;;;;;16.60;15.00;;;22.90;99.90;;;;;;5113550;28;20553;-59
2022/08/24 09:50:44;;;;;;;17.40;15.30;;;22.90;99.90;;;;;;5120474;27;20441;-59
2022/08/24 09:53:30;;;;;;;15.77;14.23;;;23.10;99.90;;;;;;5134682;27;20522;-59
2022/08/24 09:56:04;;;;;;;17.60;15.80;;;23.00;99.90;;;;;;5134599;27;20452;-60
2022/08/24 09:58:44;;;;;;;17.90;16.00;;;23.00;99.90;;;;;;5134540;27;20483;-59
2022/08/24 10:01:18;;;;;;;18.20;16.60;;;23.00;99.90;;;;;;5134549;27;20531;-59
2022/08/24 10:03:55;;;;;;;18.50;16.60;;;23.00;99.90;;;;;;5134463;27;20444;-59
2022/08/24 10:06:34;;;;;;;19.40;17.60;;;23.00;99.90;;;;;;5134314;27;20535;-59
2022/08/24 10:09:34;;;;;;;19.17;17.30;;;23.20;99.90;;;;;;5134434;27;20819;-59
2022/08/24 10:12:10;;;;;;;19.97;18.07;;;23.50;99.90;;;;;;5134315;27;20540;-59
2022/08/24 10:14:47;;;;;;;21.37;19.27;;;23.20;99.90;;;;;;5134269;27;20468;-59
2022/08/24 10:17:20;;;;;;;23.30;21.10;;;23.30;99.90;;;;;;5134347;27;20479;-59
2022/08/24 10:20:00;;;;;;;28.20;25.60;;;23.10;99.90;;;;;;5134068;27;20989;-59
2022/08/24 10:22:39;;;;;;;27.73;25.00;;;23.20;99.90;;;;;;5134118;27;20540;-59
2022/08/24 10:25:25;;;;;;;26.33;23.93;;;23.30;99.90;;;;;;5133670;27;20457;-59
2022/08/24 10:28:03;;;;;;;27.67;24.97;;;23.60;99.90;;;;;;5132770;27;20539;-58
2022/08/24 10:31:00;;;;;;;25.93;23.47;;;23.80;99.90;;;;;;5133481;27;20551;-59
2022/08/24 10:33:31;;;;;;;26.53;23.93;;;24.10;99.90;;;;;;5116579;27;20452;-59
2022/08/24 10:36:25;;;;;;;26.33;23.93;;;23.70;99.90;;;;;;5133952;27;20541;-58
2022/08/24 10:45:34;;;;;;;26.17;23.67;;;23.90;99.90;;;;;;5133699;27;20508;-58
2022/08/24 10:48:21;;;;;;;27.27;24.63;;;23.90;99.90;;;;;;5133651;27;20596;-59
2022/08/24 10:50:56;;;;;;;25.27;22.67;;;23.60;99.90;;;;;;5133710;27;20650;-58
2022/08/24 10:53:28;;;;;;;24.87;22.43;;;23.90;99.90;;;;;;5133649;27;20436;-58
2022/08/24 10:56:05;;;;;;;23.00;20.80;;;24.00;99.90;;;;;;5133646;27;20532;-58
2022/08/24 10:58:47;;;;;;;22.73;18.90;;;24.30;99.90;;;;;;5133322;27;20491;-58
2022/08/24 11:01:20;;;;;;;21.17;18.97;;;24.80;99.90;;;;;;5133521;28;20536;-60
2022/08/24 11:03:54;;;;;;;22.33;20.30;;;24.80;99.90;;;;;;5133538;27;20594;-60
2022/08/24 11:06:22;;;;;;;20.30;18.33;;;25.10;99.90;;;;;;5133513;28;20857;-59
2022/08/24 11:08:56;;;;;;;23.50;21.10;;;25.50;99.90;;;;;;5133547;28;20544;-60
2022/08/24 11:11:26;;;;;;;20.50;18.67;;;25.80;99.90;;;;;;5133454;28;20935;-60
2022/08/24 11:13:57;;;;;;;20.30;18.30;;;25.80;99.90;;;;;;5133369;27;20936;-60
2022/08/24 11:16:29;;;;;;;19.70;17.90;;;25.90;99.90;;;;;;5133502;28;20444;-60
2022/08/24 11:18:57;;;;;;;18.20;16.60;;;26.00;99.90;;;;;;5133325;28;21040;-59
2022/08/24 11:21:53;;;;;;;18.70;16.70;;;25.90;99.90;;;;;;5133246;28;20535;-60
2022/08/24 11:24:39;;;;;;;19.90;16.57;;;25.80;99.90;;;;;;5133444;28;20487;-60
2022/08/24 11:27:08;;;;;;;18.13;16.33;;;25.70;99.90;;;;;;5133257;28;20534;-60
2022/08/24 11:30:00;;;;;;;17.50;15.90;;;25.60;99.90;;;;;;5133286;28;20816;-60
2022/08/24 11:32:33;;;;;;;15.93;14.50;;;25.50;99.90;;;;;;5133440;27;20494;-60
2022/08/24 11:35:04;;;;;;;16.77;15.17;;;25.20;99.90;;;;;;5133321;28;20448;-60
2022/08/24 11:37:33;;;;;;;15.70;14.00;;;25.20;99.90;;;;;;5133222;28;20598;-60
2022/08/24 11:40:00;;;;;;;15.13;12.27;;;25.10;99.90;;;;;;5136095;27;20480;-60
2022/08/24 11:42:47;;;;;;;12.23;11.10;;;24.90;99.90;;;;;;5137123;27;20448;-60
2022/08/24 11:45:18;;;;;;;12.07;10.33;;;25.00;99.90;;;;;;5091989;27;20974;-60
2022/08/24 11:47:59;;;;;;;10.83;9.73;;;24.80;99.90;;;;;;5104543;27;20549;-60
2022/08/24 11:50:32;;;;;;;11.43;10.30;;;25.20;99.90;;;;;;5103046;28;20860;-59
2022/08/24 11:53:11;;;;;;;12.53;11.17;;;25.50;99.90;;;;;;5096093;28;20925;-62
2022/08/24 11:55:46;;;;;;;12.17;10.20;;;25.70;99.90;;;;;;5103778;28;20534;-62
2022/08/24 11:58:18;;;;;;;11.67;10.50;;;26.30;99.90;;;;;;5106104;28;20473;-62
2022/08/24 12:00:49;;;;;;;13.87;9.50;;;26.70;99.90;;;;;;5115886;28;21008;-61
2022/08/24 12:03:34;;;;;;;9.67;8.87;;;27.10;99.90;;;;;;5107529;28;20533;-61
2022/08/24 12:06:06;;;;;;;9.77;8.83;;;27.00;99.90;;;;;;5116227;28;20536;-61
2022/08/24 12:08:39;;;;;;;10.20;9.23;;;26.40;99.90;;;;;;5105568;28;20526;-60
2022/08/24 12:11:25;;;;;;;8.90;8.10;;;26.20;99.90;;;;;;5095426;28;20446;-60
2022/08/24 12:13:58;;;;;;;9.73;8.50;;;26.20;99.90;;;;;;5095708;28;20468;-61
2022/08/24 12:16:30;;;;;;;11.97;9.03;;;26.10;99.90;;;;;;5095611;28;20489;-63
2022/08/24 12:19:02;;;;;;;8.93;8.20;;;26.10;99.90;;;;;;5095492;28;20569;-63
2022/08/24 12:21:33;;;;;;;9.97;7.67;;;26.20;99.90;;;;;;5096070;28;20457;-64
2022/08/24 12:24:04;;;;;;;8.77;7.90;;;26.70;99.90;;;;;;5095281;28;20533;-60
2022/08/24 12:26:37;;;;;;;8.87;7.90;;;27.20;99.90;;;;;;5095547;28;20450;-60
2022/08/24 12:29:09;;;;;;;9.33;8.50;;;27.10;99.90;;;;;;5095424;28;20892;-61
2022/08/24 12:31:40;;;;;;;9.03;7.77;;;26.90;99.90;;;;;;5095345;28;20485;-63
2022/08/24 12:34:14;;;;;;;8.13;7.30;;;26.60;99.90;;;;;;5095245;28;20443;-64
2022/08/24 12:36:57;;;;;;;8.40;7.70;;;26.60;99.90;;;;;;5095160;28;21004;-63
2022/08/24 12:39:31;;;;;;;9.20;8.33;;;26.70;99.90;;;;;;5095189;28;20505;-65
2022/08/24 12:42:05;;;;;;;10.13;9.00;;;27.10;99.90;;;;;;5095109;28;20541;-62
2022/08/24 12:44:40;;;;;;;9.70;8.80;;;26.70;99.90;;;;;;5094979;28;20481;-61
2022/08/24 12:47:07;;;;;;;8.43;7.80;;;26.40;99.90;;;;;;5094900;28;20442;-60
2022/08/24 12:49:43;;;;;;;9.00;8.03;;;26.40;99.90;;;;;;5095031;28;20446;-61
2022/08/24 12:52:30;;;;;;;8.20;7.70;;;26.20;99.90;;;;;;5106248;28;20873;-67
2022/08/24 12:55:15;;;;;;;8.67;7.93;;;26.30;99.90;;;;;;5105475;28;20450;-60
2022/08/24 12:57:52;;;;;;;9.80;8.90;;;26.90;99.90;;;;;;5094845;28;20457;-57
2022/08/24 13:00:22;;;;;;;8.77;7.60;;;27.30;99.90;;;;;;5094910;28;20453;-59
2022/08/24 13:02:57;;;;;;;9.33;7.90;;;27.30;99.90;;;;;;5100646;28;20501;-63
2022/08/24 13:05:26;;;;;;;8.87;7.30;;;27.70;99.90;;;;;;5100760;28;20869;-63